sensor_id;sensor_type;location;lat;lon;timestamp;temperature;humidity
20398;DHT22;10358;49.590;11.030;2023-10-13T00:02:00;15.60;99.90
20398;DHT22;10358;49.590;11.030;2023-10-13T00:04:29;15.60;99.90
20398;DHT22;10358;49.590;11.030;2023-10-13T00:06:57;15.50;99.90
20398;DHT22;10358;49.590;11.030;2023-10-13T00:09:26;15.50;99.90
20398;DHT22;10358;49.590;11.030;2023-10-13T00:11:58;15.50;99.90
20398;DHT22;10358;49.590;11.030;2023-10-13T00:14:24;15.50;99.90
20398;DHT22;10358;49.590;11.030;2023-10-13T00:17:05;15.50;99.90
20398;DHT22;10358;49.590;11.030;2023-10-13T00:19:35;15.50;99.90
20398;DHT22;10358;49.590;11.030;2023-10-13T00:22:10;15.50;99.90
20398;DHT22;10358;49.590;11.030;2023-10-13T00:24:40;15.50;99.90
20398;DHT22;10358;49.590;11.030;2023-10-13T00:27:21;15.50;99.90
20398;DHT22;10358;49.590;11.030;2023-10-13T00:29:59;15.50;99.90
20398;DHT22;10358;49.590;11.030;2023-10-13T00:32:42;15.50;99.90
20398;DHT22;10358;49.590;11.030;2023-10-13T00:35:11;15.50;99.90
20398;DHT22;10358;49.590;11.030;2023-10-13T00:37:51;15.40;99.90
20398;DHT22;10358;49.590;11.030;2023-10-13T00:40:21;15.40;99.90
20398;DHT22;10358;49.590;11.030;2023-10-13T00:43:06;15.40;99.90
20398;DHT22;10358;49.590;11.030;2023-10-13T00:45:52;15.40;99.90
20398;DHT22;10358;49.590;11.030;2023-10-13T00:48:28;15.40;99.90
20398;DHT22;10358;49.590;11.030;2023-10-13T00:51:07;15.40;99.90
20398;DHT22;10358;49.590;11.030;2023-10-13T00:53:37;15.40;99.90
20398;DHT22;10358;49.590;11.030;2023-10-13T00:56:08;15.30;99.90
20398;DHT22;10358;49.590;11.030;2023-10-13T00:58:34;15.40;99.90
20398;DHT22;10358;49.590;11.030;2023-10-13T01:01:03;15.30;99.90
20398;DHT22;10358;49.590;11.030;2023-10-13T01:03:48;15.30;99.90
20398;DHT22;10358;49.590;11.030;2023-10-13T01:06:18;15.30;99.90
20398;DHT22;10358;49.590;11.030;2023-10-13T01:08:48;15.30;99.90
20398;DHT22;10358;49.590;11.030;2023-10-13T01:11:18;15.30;99.90
20398;DHT22;10358;49.590;11.030;2023-10-13T01:13:44;15.20;99.90
20398;DHT22;10358;49.590;11.030;2023-10-13T01:16:09;15.20;99.90
20398;DHT22;10358;49.590;11.030;2023-10-13T01:18:36;15.30;99.90
20398;DHT22;10358;49.590;11.030;2023-10-13T01:21:17;15.20;99.90
20398;DHT22;10358;49.590;11.030;2023-10-13T01:23:46;15.20;99.90
20398;DHT22;10358;49.590;11.030;2023-10-13T01:26:13;15.20;99.90
20398;DHT22;10358;49.590;11.030;2023-10-13T01:28:46;15.20;99.90
20398;DHT22;10358;49.590;11.030;2023-10-13T01:31:13;15.20;99.90
20398;DHT22;10358;49.590;11.030;2023-10-13T01:33:50;15.20;99.90
20398;DHT22;10358;49.590;11.030;2023-10-13T01:36:19;15.20;99.90
20398;DHT22;10358;49.590;11.030;2023-10-13T01:38:45;15.10;99.90
20398;DHT22;10358;49.590;11.030;2023-10-13T01:41:12;15.20;99.90
20398;DHT22;10358;49.590;11.030;2023-10-13T01:43:39;15.20;99.90
20398;DHT22;10358;49.590;11.030;2023-10-13T01:46:04;15.20;99.90
20398;DHT22;10358;49.590;11.030;2023-10-13T01:48:30;15.20;99.90
20398;DHT22;10358;49.590;11.030;2023-10-13T01:50:58;15.20;99.90
20398;DHT22;10358;49.590;11.030;2023-10-13T01:53:26;15.20;99.90
20398;DHT22;10358;49.590;11.030;2023-10-13T01:55:54;15.10;99.90
20398;DHT22;10358;49.590;11.030;2023-10-13T01:58:23;15.10;99.90
20398;DHT22;10358;49.590;11.030;2023-10-13T02:00:49;15.10;99.90
20398;DHT22;10358;49.590;11.030;2023-10-13T02:03:15;15.00;99.90
20398;DHT22;10358;49.590;11.030;2023-10-13T02:05:46;15.00;99.90
20398;DHT22;10358;49.590;11.030;2023-10-13T02:08:16;14.90;99.90
20398;DHT22;10358;49.590;11.030;2023-10-13T02:10:44;14.90;99.90
20398;DHT22;10358;49.590;11.030;2023-10-13T02:13:14;14.90;99.90
20398;DHT22;10358;49.590;11.030;2023-10-13T02:15:46;15.00;99.90
20398;DHT22;10358;49.590;11.030;2023-10-13T02:18:15;15.00;99.90
20398;DHT22;10358;49.590;11.030;2023-10-13T02:20:47;15.00;99.90
20398;DHT22;10358;49.590;11.030;2023-10-13T02:23:20;14.90;99.90
20398;DHT22;10358;49.590;11.030;2023-10-13T02:25:45;14.90;99.90
20398;DHT22;10358;49.590;11.030;2023-10-13T02:28:12;14.90;99.90
20398;DHT22;10358;49.590;11.030;2023-10-13T02:30:47;14.90;99.90
20398;DHT22;10358;49.590;11.030;2023-10-13T02:33:16;15.00;99.90
20398;DHT22;10358;49.590;11.030;2023-10-13T02:35:56;14.90;99.90
20398;DHT22;10358;49.590;11.030;2023-10-13T02:38:22;14.90;99.90
20398;DHT22;10358;49.590;11.030;2023-10-13T02:41:16;14.90;99.90
20398;DHT22;10358;49.590;11.030;2023-10-13T02:44:03;14.90;99.90
20398;DHT22;10358;49.590;11.030;2023-10-13T02:46:33;14.90;99.90
20398;DHT22;10358;49.590;11.030;2023-10-13T02:49:04;14.90;99.90
20398;DHT22;10358;49.590;11.030;2023-10-13T02:51:37;14.90;99.90
20398;DHT22;10358;49.590;11.030;2023-10-13T02:54:04;15.00;99.90
20398;DHT22;10358;49.590;11.030;2023-10-13T02:56:36;15.00;99.90
20398;DHT22;10358;49.590;11.030;2023-10-13T02:59:02;15.00;99.90
20398;DHT22;10358;49.590;11.030;2023-10-13T03:01:37;15.00;99.90
20398;DHT22;10358;49.590;11.030;2023-10-13T03:04:04;15.00;99.90
20398;DHT22;10358;49.590;11.030;2023-10-13T03:06:34;15.00;99.90
20398;DHT22;10358;49.590;11.030;2023-10-13T03:09:04;15.10;99.90
20398;DHT22;10358;49.590;11.030;2023-10-13T03:11:45;15.10;99.90
20398;DHT22;10358;49.590;11.030;2023-10-13T03:14:15;15.10;99.90
20398;DHT22;10358;49.590;11.030;2023-10-13T03:16:55;15.10;99.90
20398;DHT22;10358;49.590;11.030;2023-10-13T03:19:28;15.10;99.90
20398;DHT22;10358;49.590;11.030;2023-10-13T03:22:05;15.10;99.90
20398;DHT22;10358;49.590;11.030;2023-10-13T03:24:35;15.10;99.90
20398;DHT22;10358;49.590;11.030;2023-10-13T03:27:02;15.20;99.90
20398;DHT22;10358;49.590;11.030;2023-10-13T03:29:38;15.20;99.90
20398;DHT22;10358;49.590;11.030;2023-10-13T03:32:15;15.20;99.90
20398;DHT22;10358;49.590;11.030;2023-10-13T03:34:44;15.20;99.90
20398;DHT22;10358;49.590;11.030;2023-10-13T03:37:28;15.20;99.90
20398;DHT22;10358;49.590;11.030;2023-10-13T03:40:10;15.20;99.90
20398;DHT22;10358;49.590;11.030;2023-10-13T03:42:52;15.20;99.90
20398;DHT22;10358;49.590;11.030;2023-10-13T03:45:39;15.20;99.90
20398;DHT22;10358;49.590;11.030;2023-10-13T03:48:06;15.20;99.90
20398;DHT22;10358;49.590;11.030;2023-10-13T03:50:39;15.20;99.90
20398;DHT22;10358;49.590;11.030;2023-10-13T03:53:27;15.20;99.90
20398;DHT22;10358;49.590;11.030;2023-10-13T03:55:53;15.20;99.90
20398;DHT22;10358;49.590;11.030;2023-10-13T03:58:37;15.30;99.90
20398;DHT22;10358;49.590;11.030;2023-10-13T04:01:11;15.20;99.90
20398;DHT22;10358;49.590;11.030;2023-10-13T04:03:39;15.20;99.90
20398;DHT22;10358;49.590;11.030;2023-10-13T04:06:25;15.30;99.90
20398;DHT22;10358;49.590;11.030;2023-10-13T04:09:12;15.30;99.90
20398;DHT22;10358;49.590;11.030;2023-10-13T04:12:06;15.30;99.90
20398;DHT22;10358;49.590;11.030;2023-10-13T04:14:40;15.30;99.90
20398;DHT22;10358;49.590;11.030;2023-10-13T04:17:24;15.30;99.90
20398;DHT22;10358;49.590;11.030;2023-10-13T04:19:57;15.20;99.90
20398;DHT22;10358;49.590;11.030;2023-10-13T04:22:43;15.20;99.90
20398;DHT22;10358;49.590;11.030;2023-10-13T04:25:23;15.20;99.90
20398;DHT22;10358;49.590;11.030;2023-10-13T04:28:08;15.20;99.90
20398;DHT22;10358;49.590;11.030;2023-10-13T04:30:45;15.20;99.90
20398;DHT22;10358;49.590;11.030;2023-10-13T04:36:31;15.20;99.90
20398;DHT22;10358;49.590;11.030;2023-10-13T04:38:58;15.20;99.90
20398;DHT22;10358;49.590;11.030;2023-10-13T04:41:37;15.20;99.90
20398;DHT22;10358;49.590;11.030;2023-10-13T04:44:05;15.10;99.90
20398;DHT22;10358;49.590;11.030;2023-10-13T04:46:51;15.10;99.90
20398;DHT22;10358;49.590;11.030;2023-10-13T04:49:18;15.00;99.90
20398;DHT22;10358;49.590;11.030;2023-10-13T04:52:10;15.00;99.90
20398;DHT22;10358;49.590;11.030;2023-10-13T04:54:40;14.90;99.90
20398;DHT22;10358;49.590;11.030;2023-10-13T04:57:21;15.00;99.90
20398;DHT22;10358;49.590;11.030;2023-10-13T05:00:19;15.00;99.90
20398;DHT22;10358;49.590;11.030;2023-10-13T05:02:45;15.10;99.90
20398;DHT22;10358;49.590;11.030;2023-10-13T05:05:27;15.10;99.90
20398;DHT22;10358;49.590;11.030;2023-10-13T05:08:19;15.20;99.90
20398;DHT22;10358;49.590;11.030;2023-10-13T05:11:04;15.20;99.90
20398;DHT22;10358;49.590;11.030;2023-10-13T05:13:49;15.20;99.90
20398;DHT22;10358;49.590;11.030;2023-10-13T05:16:33;15.20;99.90
20398;DHT22;10358;49.590;11.030;2023-10-13T05:19:17;15.20;99.90
20398;DHT22;10358;49.590;11.030;2023-10-13T05:22:02;15.20;99.90
20398;DHT22;10358;49.590;11.030;2023-10-13T05:24:46;15.20;99.90
20398;DHT22;10358;49.590;11.030;2023-10-13T05:27:30;15.20;99.90
20398;DHT22;10358;49.590;11.030;2023-10-13T05:30:15;15.20;99.90
20398;DHT22;10358;49.590;11.030;2023-10-13T05:32:59;15.20;99.90
20398;DHT22;10358;49.590;11.030;2023-10-13T05:35:43;15.10;99.90
20398;DHT22;10358;49.590;11.030;2023-10-13T05:38:27;15.10;99.90
20398;DHT22;10358;49.590;11.030;2023-10-13T05:41:12;15.10;99.90
20398;DHT22;10358;49.590;11.030;2023-10-13T05:43:56;15.10;99.90
20398;DHT22;10358;49.590;11.030;2023-10-13T05:46:40;15.10;99.90
20398;DHT22;10358;49.590;11.030;2023-10-13T05:49:26;15.10;99.90
20398;DHT22;10358;49.590;11.030;2023-10-13T05:52:14;15.20;99.90
20398;DHT22;10358;49.590;11.030;2023-10-13T05:55:06;15.20;99.90
20398;DHT22;10358;49.590;11.030;2023-10-13T05:57:50;15.30;99.90
20398;DHT22;10358;49.590;11.030;2023-10-13T06:00:41;15.30;99.90
20398;DHT22;10358;49.590;11.030;2023-10-13T06:03:26;15.40;99.90
20398;DHT22;10358;49.590;11.030;2023-10-13T06:06:10;15.30;99.90
20398;DHT22;10358;49.590;11.030;2023-10-13T06:08:54;15.30;99.90
20398;DHT22;10358;49.590;11.030;2023-10-13T06:11:39;15.30;99.90
20398;DHT22;10358;49.590;11.030;2023-10-13T06:14:23;15.30;99.90
20398;DHT22;10358;49.590;11.030;2023-10-13T06:17:07;15.30;99.90
20398;DHT22;10358;49.590;11.030;2023-10-13T06:19:51;15.40;99.90
20398;DHT22;10358;49.590;11.030;2023-10-13T06:22:35;15.40;99.90
20398;DHT22;10358;49.590;11.030;2023-10-13T06:25:20;15.50;99.90
20398;DHT22;10358;49.590;11.030;2023-10-13T06:28:04;15.50;99.90
20398;DHT22;10358;49.590;11.030;2023-10-13T06:30:59;15.60;99.90
20398;DHT22;10358;49.590;11.030;2023-10-13T06:33:26;15.70;99.90
20398;DHT22;10358;49.590;11.030;2023-10-13T06:35:58;15.70;99.90
20398;DHT22;10358;49.590;11.030;2023-10-13T06:38:24;15.80;99.90
20398;DHT22;10358;49.590;11.030;2023-10-13T06:40:49;15.80;99.90
20398;DHT22;10358;49.590;11.030;2023-10-13T06:43:17;15.80;99.90
20398;DHT22;10358;49.590;11.030;2023-10-13T06:45:47;15.80;99.90
20398;DHT22;10358;49.590;11.030;2023-10-13T06:48:23;15.80;99.90
20398;DHT22;10358;49.590;11.030;2023-10-13T06:50:49;15.80;99.90
20398;DHT22;10358;49.590;11.030;2023-10-13T06:53:20;15.80;99.90
20398;DHT22;10358;49.590;11.030;2023-10-13T06:55:46;15.80;99.90
20398;DHT22;10358;49.590;11.030;2023-10-13T06:58:18;15.80;99.90
20398;DHT22;10358;49.590;11.030;2023-10-13T07:00:49;15.80;99.90
20398;DHT22;10358;49.590;11.030;2023-10-13T07:03:24;15.90;99.90
20398;DHT22;10358;49.590;11.030;2023-10-13T07:05:51;16.00;99.90
20398;DHT22;10358;49.590;11.030;2023-10-13T07:08:18;16.00;99.90
20398;DHT22;10358;49.590;11.030;2023-10-13T07:10:53;16.00;99.90
20398;DHT22;10358;49.590;11.030;2023-10-13T07:13:29;16.10;99.90
20398;DHT22;10358;49.590;11.030;2023-10-13T07:15:55;16.10;99.90
20398;DHT22;10358;49.590;11.030;2023-10-13T07:18:30;16.20;99.90
20398;DHT22;10358;49.590;11.030;2023-10-13T07:21:04;16.30;99.90
20398;DHT22;10358;49.590;11.030;2023-10-13T07:23:36;16.40;99.90
20398;DHT22;10358;49.590;11.030;2023-10-13T07:26:02;16.50;99.90
20398;DHT22;10358;49.590;11.030;2023-10-13T07:28:31;16.60;99.90
20398;DHT22;10358;49.590;11.030;2023-10-13T07:31:00;16.70;99.90
20398;DHT22;10358;49.590;11.030;2023-10-13T07:33:25;16.80;99.90
20398;DHT22;10358;49.590;11.030;2023-10-13T07:36:08;17.00;99.90
20398;DHT22;10358;49.590;11.030;2023-10-13T07:38:45;17.10;99.90
20398;DHT22;10358;49.590;11.030;2023-10-13T07:41:17;17.20;99.90
20398;DHT22;10358;49.590;11.030;2023-10-13T07:43:43;17.30;99.90
20398;DHT22;10358;49.590;11.030;2023-10-13T07:46:10;17.50;99.90
20398;DHT22;10358;49.590;11.030;2023-10-13T07:48:37;17.60;99.90
20398;DHT22;10358;49.590;11.030;2023-10-13T07:51:05;17.70;99.90
20398;DHT22;10358;49.590;11.030;2023-10-13T07:53:45;17.80;99.90
20398;DHT22;10358;49.590;11.030;2023-10-13T07:56:14;18.00;99.90
20398;DHT22;10358;49.590;11.030;2023-10-13T07:58:44;18.00;99.90
20398;DHT22;10358;49.590;11.030;2023-10-13T08:01:18;18.10;99.90
20398;DHT22;10358;49.590;11.030;2023-10-13T08:03:44;18.20;99.90
20398;DHT22;10358;49.590;11.030;2023-10-13T08:06:11;18.20;99.90
20398;DHT22;10358;49.590;11.030;2023-10-13T08:08:38;18.30;99.90
20398;DHT22;10358;49.590;11.030;2023-10-13T08:13:58;18.30;99.90
20398;DHT22;10358;49.590;11.030;2023-10-13T08:16:25;18.40;99.90
20398;DHT22;10358;49.590;11.030;2023-10-13T08:19:11;18.40;99.90
20398;DHT22;10358;49.590;11.030;2023-10-13T08:21:44;18.50;99.90
20398;DHT22;10358;49.590;11.030;2023-10-13T08:24:23;18.50;99.90
20398;DHT22;10358;49.590;11.030;2023-10-13T08:27:16;18.50;99.90
20398;DHT22;10358;49.590;11.030;2023-10-13T08:29:43;18.60;99.90
20398;DHT22;10358;49.590;11.030;2023-10-13T08:32:34;18.60;99.90
20398;DHT22;10358;49.590;11.030;2023-10-13T08:35:20;18.70;99.90
20398;DHT22;10358;49.590;11.030;2023-10-13T08:38:00;18.80;99.90
20398;DHT22;10358;49.590;11.030;2023-10-13T08:40:29;18.80;99.90
20398;DHT22;10358;49.590;11.030;2023-10-13T08:43:13;18.90;99.90
20398;DHT22;10358;49.590;11.030;2023-10-13T08:45:41;19.00;99.90
20398;DHT22;10358;49.590;11.030;2023-10-13T08:48:10;19.00;99.90
20398;DHT22;10358;49.590;11.030;2023-10-13T08:50:51;19.10;99.90
20398;DHT22;10358;49.590;11.030;2023-10-13T08:53:27;19.20;99.90
20398;DHT22;10358;49.590;11.030;2023-10-13T08:55:59;19.20;99.90
20398;DHT22;10358;49.590;11.030;2023-10-13T08:58:28;19.20;99.90
20398;DHT22;10358;49.590;11.030;2023-10-13T09:01:13;19.30;99.90
20398;DHT22;10358;49.590;11.030;2023-10-13T09:03:40;19.40;99.90
20398;DHT22;10358;49.590;11.030;2023-10-13T09:06:13;19.50;99.90
20398;DHT22;10358;49.590;11.030;2023-10-13T09:08:45;19.50;99.90
20398;DHT22;10358;49.590;11.030;2023-10-13T09:11:34;19.60;99.90
20398;DHT22;10358;49.590;11.030;2023-10-13T09:14:20;19.60;99.90
20398;DHT22;10358;49.590;11.030;2023-10-13T09:17:05;19.70;99.90
20398;DHT22;10358;49.590;11.030;2023-10-13T09:22:25;19.80;99.90
20398;DHT22;10358;49.590;11.030;2023-10-13T09:25:01;20.00;99.90
20398;DHT22;10358;49.590;11.030;2023-10-13T09:27:32;20.00;99.90
20398;DHT22;10358;49.590;11.030;2023-10-13T09:30:03;20.10;99.90
20398;DHT22;10358;49.590;11.030;2023-10-13T09:32:35;20.20;99.90
20398;DHT22;10358;49.590;11.030;2023-10-13T09:35:20;20.20;99.90
20398;DHT22;10358;49.590;11.030;2023-10-13T09:37:49;20.30;99.90
20398;DHT22;10358;49.590;11.030;2023-10-13T09:40:16;20.30;99.90
20398;DHT22;10358;49.590;11.030;2023-10-13T09:43:12;20.30;99.90
20398;DHT22;10358;49.590;11.030;2023-10-13T09:45:41;20.40;99.90
20398;DHT22;10358;49.590;11.030;2023-10-13T09:48:32;20.50;99.90
20398;DHT22;10358;49.590;11.030;2023-10-13T09:51:01;20.50;99.90
20398;DHT22;10358;49.590;11.030;2023-10-13T09:53:30;20.50;99.90
20398;DHT22;10358;49.590;11.030;2023-10-13T09:56:14;20.60;99.90
20398;DHT22;10358;49.590;11.030;2023-10-13T09:59:00;20.70;99.90
20398;DHT22;10358;49.590;11.030;2023-10-13T10:01:39;20.80;99.90
20398;DHT22;10358;49.590;11.030;2023-10-13T10:04:16;20.90;99.90
20398;DHT22;10358;49.590;11.030;2023-10-13T10:06:58;21.10;99.90
20398;DHT22;10358;49.590;11.030;2023-10-13T10:09:29;21.20;99.90
20398;DHT22;10358;49.590;11.030;2023-10-13T10:17:40;21.60;99.90
20398;DHT22;10358;49.590;11.030;2023-10-13T10:20:09;21.70;99.90
20398;DHT22;10358;49.590;11.030;2023-10-13T10:22:55;21.80;99.90
20398;DHT22;10358;49.590;11.030;2023-10-13T10:25:32;21.80;99.90
20398;DHT22;10358;49.590;11.030;2023-10-13T10:28:05;21.90;99.90
20398;DHT22;10358;49.590;11.030;2023-10-13T10:30:33;21.90;99.90
20398;DHT22;10358;49.590;11.030;2023-10-13T10:33:00;22.10;99.90
20398;DHT22;10358;49.590;11.030;2023-10-13T10:35:31;22.20;99.90
20398;DHT22;10358;49.590;11.030;2023-10-13T10:38:10;22.40;99.90
20398;DHT22;10358;49.590;11.030;2023-10-13T10:43:28;22.60;99.90
20398;DHT22;10358;49.590;11.030;2023-10-13T10:46:27;22.70;99.90
20398;DHT22;10358;49.590;11.030;2023-10-13T10:48:55;22.80;99.90
20398;DHT22;10358;49.590;11.030;2023-10-13T10:51:28;22.90;99.90
20398;DHT22;10358;49.590;11.030;2023-10-13T10:53:57;22.90;99.90
20398;DHT22;10358;49.590;11.030;2023-10-13T10:56:25;22.90;99.90
20398;DHT22;10358;49.590;11.030;2023-10-13T10:59:07;22.90;99.90
20398;DHT22;10358;49.590;11.030;2023-10-13T11:01:43;22.90;99.90
20398;DHT22;10358;49.590;11.030;2023-10-13T11:04:13;22.90;99.90
20398;DHT22;10358;49.590;11.030;2023-10-13T11:06:50;23.00;99.90
20398;DHT22;10358;49.590;11.030;2023-10-13T11:09:29;23.10;99.90
20398;DHT22;10358;49.590;11.030;2023-10-13T11:15:06;23.20;99.90
20398;DHT22;10358;49.590;11.030;2023-10-13T11:17:41;23.20;99.90
20398;DHT22;10358;49.590;11.030;2023-10-13T11:20:17;23.30;99.90
20398;DHT22;10358;49.590;11.030;2023-10-13T11:22:47;23.30;99.90
20398;DHT22;10358;49.590;11.030;2023-10-13T11:25:26;23.30;99.90
20398;DHT22;10358;49.590;11.030;2023-10-13T11:28:14;23.30;99.90
20398;DHT22;10358;49.590;11.030;2023-10-13T11:30:44;23.40;97.00
20398;DHT22;10358;49.590;11.030;2023-10-13T11:33:17;23.50;97.70
20398;DHT22;10358;49.590;11.030;2023-10-13T11:35:49;23.50;96.70
20398;DHT22;10358;49.590;11.030;2023-10-13T11:38:22;23.60;95.40
20398;DHT22;10358;49.590;11.030;2023-10-13T11:41:02;23.70;95.20
20398;DHT22;10358;49.590;11.030;2023-10-13T11:43:35;23.70;94.60
20398;DHT22;10358;49.590;11.030;2023-10-13T11:46:10;23.80;94.00
20398;DHT22;10358;49.590;11.030;2023-10-13T11:48:36;23.80;93.50
20398;DHT22;10358;49.590;11.030;2023-10-13T11:51:03;23.90;93.40
20398;DHT22;10358;49.590;11.030;2023-10-13T11:53:47;24.00;91.70
20398;DHT22;10358;49.590;11.030;2023-10-13T11:56:18;24.10;91.50
20398;DHT22;10358;49.590;11.030;2023-10-13T11:58:46;24.20;91.70
20398;DHT22;10358;49.590;11.030;2023-10-13T12:01:12;24.20;90.50
20398;DHT22;10358;49.590;11.030;2023-10-13T12:03:38;24.20;90.00
20398;DHT22;10358;49.590;11.030;2023-10-13T12:06:23;24.30;88.40
20398;DHT22;10358;49.590;11.030;2023-10-13T12:09:01;24.30;88.50
20398;DHT22;10358;49.590;11.030;2023-10-13T12:11:49;24.30;88.70
20398;DHT22;10358;49.590;11.030;2023-10-13T12:14:20;24.40;84.80
20398;DHT22;10358;49.590;11.030;2023-10-13T12:16:50;24.50;86.50
20398;DHT22;10358;49.590;11.030;2023-10-13T12:19:20;24.60;85.80
20398;DHT22;10358;49.590;11.030;2023-10-13T12:21:50;24.70;86.20
20398;DHT22;10358;49.590;11.030;2023-10-13T12:24:19;24.80;84.60
20398;DHT22;10358;49.590;11.030;2023-10-13T12:27:08;24.80;84.70
20398;DHT22;10358;49.590;11.030;2023-10-13T12:29:50;24.90;84.60
20398;DHT22;10358;49.590;11.030;2023-10-13T12:32:17;24.90;84.70
20398;DHT22;10358;49.590;11.030;2023-10-13T12:34:49;25.10;83.10
20398;DHT22;10358;49.590;11.030;2023-10-13T12:37:31;25.30;82.50
20398;DHT22;10358;49.590;11.030;2023-10-13T12:40:04;25.30;82.10
20398;DHT22;10358;49.590;11.030;2023-10-13T12:42:49;25.30;81.50
20398;DHT22;10358;49.590;11.030;2023-10-13T12:45:33;25.30;81.10
20398;DHT22;10358;49.590;11.030;2023-10-13T12:48:22;25.30;81.00
20398;DHT22;10358;49.590;11.030;2023-10-13T12:51:06;25.50;79.80
20398;DHT22;10358;49.590;11.030;2023-10-13T12:53:51;25.50;79.00
20398;DHT22;10358;49.590;11.030;2023-10-13T12:56:18;25.60;79.00
20398;DHT22;10358;49.590;11.030;2023-10-13T12:58:51;25.60;79.10
20398;DHT22;10358;49.590;11.030;2023-10-13T13:01:18;25.60;78.10
20398;DHT22;10358;49.590;11.030;2023-10-13T13:03:47;25.70;77.40
20398;DHT22;10358;49.590;11.030;2023-10-13T13:06:21;25.80;77.00
20398;DHT22;10358;49.590;11.030;2023-10-13T13:08:59;25.90;76.20
20398;DHT22;10358;49.590;11.030;2023-10-13T13:11:26;26.00;75.00
20398;DHT22;10358;49.590;11.030;2023-10-13T13:13:55;26.10;74.90
20398;DHT22;10358;49.590;11.030;2023-10-13T13:16:20;26.20;74.70
20398;DHT22;10358;49.590;11.030;2023-10-13T13:18:55;26.40;73.50
20398;DHT22;10358;49.590;11.030;2023-10-13T13:21:21;26.50;72.50
20398;DHT22;10358;49.590;11.030;2023-10-13T13:23:53;26.70;72.60
20398;DHT22;10358;49.590;11.030;2023-10-13T13:26:24;26.90;71.10
20398;DHT22;10358;49.590;11.030;2023-10-13T13:28:50;27.10;69.80
20398;DHT22;10358;49.590;11.030;2023-10-13T13:31:19;27.20;69.70
20398;DHT22;10358;49.590;11.030;2023-10-13T13:33:50;27.40;68.60
20398;DHT22;10358;49.590;11.030;2023-10-13T13:36:16;27.60;67.40
20398;DHT22;10358;49.590;11.030;2023-10-13T13:38:46;27.70;65.80
20398;DHT22;10358;49.590;11.030;2023-10-13T13:41:14;27.80;64.70
20398;DHT22;10358;49.590;11.030;2023-10-13T13:43:47;27.90;63.30
20398;DHT22;10358;49.590;11.030;2023-10-13T13:46:19;27.90;62.90
20398;DHT22;10358;49.590;11.030;2023-10-13T13:48:50;28.00;63.20
20398;DHT22;10358;49.590;11.030;2023-10-13T13:51:17;28.10;63.30
20398;DHT22;10358;49.590;11.030;2023-10-13T13:53:52;28.30;62.70
20398;DHT22;10358;49.590;11.030;2023-10-13T13:56:19;28.40;62.10
20398;DHT22;10358;49.590;11.030;2023-10-13T13:58:48;28.50;61.80
20398;DHT22;10358;49.590;11.030;2023-10-13T14:01:15;28.50;61.80
20398;DHT22;10358;49.590;11.030;2023-10-13T14:03:44;28.60;61.90
20398;DHT22;10358;49.590;11.030;2023-10-13T14:06:18;28.80;62.10
20398;DHT22;10358;49.590;11.030;2023-10-13T14:08:46;29.00;61.90
20398;DHT22;10358;49.590;11.030;2023-10-13T14:11:17;29.30;61.20
20398;DHT22;10358;49.590;11.030;2023-10-13T14:14:01;29.50;61.10
20398;DHT22;10358;49.590;11.030;2023-10-13T14:16:30;29.60;59.10
20398;DHT22;10358;49.590;11.030;2023-10-13T14:18:59;29.70;58.60
20398;DHT22;10358;49.590;11.030;2023-10-13T14:21:27;29.80;58.60
20398;DHT22;10358;49.590;11.030;2023-10-13T14:23:53;29.90;58.20
20398;DHT22;10358;49.590;11.030;2023-10-13T14:26:19;30.10;58.20
20398;DHT22;10358;49.590;11.030;2023-10-13T14:28:47;30.20;58.30
20398;DHT22;10358;49.590;11.030;2023-10-13T14:31:31;30.30;57.70
20398;DHT22;10358;49.590;11.030;2023-10-13T14:33:59;30.50;57.70
20398;DHT22;10358;49.590;11.030;2023-10-13T14:36:25;30.50;56.20
20398;DHT22;10358;49.590;11.030;2023-10-13T14:38:57;30.50;56.10
20398;DHT22;10358;49.590;11.030;2023-10-13T14:41:22;30.40;55.90
20398;DHT22;10358;49.590;11.030;2023-10-13T14:43:48;30.50;55.50
20398;DHT22;10358;49.590;11.030;2023-10-13T14:46:18;30.40;55.70
20398;DHT22;10358;49.590;11.030;2023-10-13T14:48:44;30.30;55.90
20398;DHT22;10358;49.590;11.030;2023-10-13T14:51:13;30.00;55.50
20398;DHT22;10358;49.590;11.030;2023-10-13T14:53:42;29.70;55.80
20398;DHT22;10358;49.590;11.030;2023-10-13T14:56:12;29.50;56.10
20398;DHT22;10358;49.590;11.030;2023-10-13T14:58:39;29.40;56.30
20398;DHT22;10358;49.590;11.030;2023-10-13T15:01:19;29.20;56.50
20398;DHT22;10358;49.590;11.030;2023-10-13T15:06:19;28.90;56.60
20398;DHT22;10358;49.590;11.030;2023-10-13T15:08:55;28.70;56.50
20398;DHT22;10358;49.590;11.030;2023-10-13T15:11:21;28.30;56.60
20398;DHT22;10358;49.590;11.030;2023-10-13T15:13:52;28.20;56.70
20398;DHT22;10358;49.590;11.030;2023-10-13T15:16:20;28.30;56.70
20398;DHT22;10358;49.590;11.030;2023-10-13T15:18:47;28.40;56.30
20398;DHT22;10358;49.590;11.030;2023-10-13T15:21:26;28.50;56.20
20398;DHT22;10358;49.590;11.030;2023-10-13T15:23:56;28.70;56.40
20398;DHT22;10358;49.590;11.030;2023-10-13T15:26:27;28.80;56.30
20398;DHT22;10358;49.590;11.030;2023-10-13T15:28:53;28.80;56.10
20398;DHT22;10358;49.590;11.030;2023-10-13T15:31:23;28.90;56.00
20398;DHT22;10358;49.590;11.030;2023-10-13T15:33:55;28.90;56.10
20398;DHT22;10358;49.590;11.030;2023-10-13T15:36:24;29.10;56.20
20398;DHT22;10358;49.590;11.030;2023-10-13T15:38:53;29.10;55.90
20398;DHT22;10358;49.590;11.030;2023-10-13T15:41:34;28.90;55.50
20398;DHT22;10358;49.590;11.030;2023-10-13T15:44:03;28.60;56.00
20398;DHT22;10358;49.590;11.030;2023-10-13T15:46:31;28.60;56.80
20398;DHT22;10358;49.590;11.030;2023-10-13T15:49:00;28.70;56.80
20398;DHT22;10358;49.590;11.030;2023-10-13T15:51:25;28.70;56.70
20398;DHT22;10358;49.590;11.030;2023-10-13T15:53:51;28.70;56.90
20398;DHT22;10358;49.590;11.030;2023-10-13T15:56:17;28.70;56.90
20398;DHT22;10358;49.590;11.030;2023-10-13T15:58:45;28.70;57.00
20398;DHT22;10358;49.590;11.030;2023-10-13T16:01:12;28.50;57.10
20398;DHT22;10358;49.590;11.030;2023-10-13T16:03:42;28.40;57.20
20398;DHT22;10358;49.590;11.030;2023-10-13T16:06:18;28.10;57.70
20398;DHT22;10358;49.590;11.030;2023-10-13T16:08:44;27.80;58.30
20398;DHT22;10358;49.590;11.030;2023-10-13T16:11:12;27.60;58.90
20398;DHT22;10358;49.590;11.030;2023-10-13T16:13:47;27.40;59.30
20398;DHT22;10358;49.590;11.030;2023-10-13T16:16:23;27.10;60.00
20398;DHT22;10358;49.590;11.030;2023-10-13T16:18:52;26.70;61.00
20398;DHT22;10358;49.590;11.030;2023-10-13T16:21:19;26.30;62.20